Time;durP1;ratioP1;P1;durP2;ratioP2;P2;SDS_P1;SDS_P2;PMS_P1;PMS_P2;Temp;Humidity;BMP_temperature;BMP_pressure;BME280_temperature;BME280_humidity;BME280_pressure;Samples;Min_cycle;Max_cycle;Signal;HPM_P1;HPM_P2
2023/05/14 00:02:12;;;;;;;;;;;;;;;13.90;64.25;99132.97;5057152;28;20339;-76
2023/05/14 00:04:38;;;;;;;;;;;;;;;13.87;64.34;99136.19;5052476;28;19924;-76
2023/05/14 00:07:03;;;;;;;;;;;;;;;13.81;64.59;99130.00;5052610;28;20466;-76
2023/05/14 00:09:29;;;;;;;;;;;;;;;13.79;64.71;99136.69;5045867;28;19924;-76
2023/05/14 00:11:54;;;;;;;;;;;;;;;13.82;64.46;99131.63;5055494;28;19924;-76
2023/05/14 00:14:20;;;;;;;;;;;;;;;13.81;64.19;99129.16;5057991;28;20347;-76
2023/05/14 00:16:45;;;;;;;;;;;;;;;13.79;64.45;99121.41;5054622;28;20346;-76
2023/05/14 00:19:10;;;;;;;;;;;;;;;13.81;64.39;99123.81;5044828;28;19951;-76
2023/05/14 00:21:35;;;;;;;;;;;;;;;13.72;64.65;99117.31;5058980;28;19951;-77
2023/05/14 00:24:01;;;;;;;;;;;;;;;13.71;64.71;99121.91;5051709;28;19930;-76
2023/05/14 00:26:26;;;;;;;;;;;;;;;13.71;64.58;99113.03;5053592;28;20031;-76
2023/05/14 00:28:51;;;;;;;;;;;;;;;13.69;64.68;99107.94;5054077;28;20336;-76
2023/05/14 00:31:16;;;;;;;;;;;;;;;13.67;64.52;99111.97;5061940;28;19929;-76
2023/05/14 00:33:41;;;;;;;;;;;;;;;13.62;64.61;99109.25;5047050;28;20016;-76
2023/05/14 00:36:07;;;;;;;;;;;;;;;13.51;65.00;99108.41;5055294;28;20016;-76
2023/05/14 00:38:32;;;;;;;;;;;;;;;13.51;65.14;99108.41;5057186;28;19974;-76
2023/05/14 00:40:57;;;;;;;;;;;;;;;13.46;65.06;99111.84;5059789;28;20026;-76
2023/05/14 00:43:24;;;;;;;;;;;;;;;13.46;65.15;99109.19;5059620;28;19921;-76
2023/05/14 00:45:49;;;;;;;;;;;;;;;13.36;65.45;99101.09;5055854;28;19924;-76
2023/05/14 00:48:15;;;;;;;;;;;;;;;13.32;65.50;99110.69;5054942;28;19974;-76
2023/05/14 00:50:41;;;;;;;;;;;;;;;13.33;65.62;99109.63;5060057;28;19923;-76
2023/05/14 00:53:09;;;;;;;;;;;;;;;13.37;65.64;99110.72;5062509;28;20004;-76
2023/05/14 00:55:35;;;;;;;;;;;;;;;13.36;65.19;99108.31;5054542;28;20009;-76
2023/05/14 00:58:01;;;;;;;;;;;;;;;13.33;65.54;99101.59;5057411;28;20403;-76
2023/05/14 01:00:26;;;;;;;;;;;;;;;13.38;65.37;99104.31;5060104;28;19931;-76
2023/05/14 01:02:52;;;;;;;;;;;;;;;13.33;65.25;99101.59;5050884;28;19921;-76
2023/05/14 01:05:17;;;;;;;;;;;;;;;13.30;65.56;99104.00;5058336;28;19927;-76
2023/05/14 01:07:42;;;;;;;;;;;;;;;13.26;65.92;99098.34;5057275;28;20015;-76
2023/05/14 01:10:12;;;;;;;;;;;;;;;13.24;65.94;99097.78;5058718;28;19921;-76
2023/05/14 01:12:46;;;;;;;;;;;;;;;13.25;65.77;99099.41;5054487;28;19916;-76
2023/05/14 01:15:12;;;;;;;;;;;;;;;13.27;65.80;99096.47;5052520;28;19928;-76
2023/05/14 01:17:42;;;;;;;;;;;;;;;13.19;66.06;99099.66;5050845;28;19923;-76
2023/05/14 01:20:07;;;;;;;;;;;;;;;13.23;65.83;99106.91;5061030;28;19928;-76
2023/05/14 01:22:33;;;;;;;;;;;;;;;13.21;65.93;99102.88;5058258;28;20016;-76
2023/05/14 01:24:58;;;;;;;;;;;;;;;13.17;66.14;99101.78;5057931;28;19921;-76
2023/05/14 01:27:23;;;;;;;;;;;;;;;13.23;65.97;99104.22;5058815;28;20387;-76
2023/05/14 01:29:58;;;;;;;;;;;;;;;13.16;66.09;99095.59;5058497;28;20011;-76
2023/05/14 01:32:24;;;;;;;;;;;;;;;13.19;66.24;99095.06;5055036;28;21611;-76
2023/05/14 01:34:49;;;;;;;;;;;;;;;13.22;65.72;99099.91;5059208;28;19920;-76
2023/05/14 01:37:15;;;;;;;;;;;;;;;13.22;66.19;99099.91;5062792;28;20019;-76
2023/05/14 01:39:40;;;;;;;;;;;;;;;13.28;65.84;99093.53;5066880;28;19925;-76
2023/05/14 01:42:06;;;;;;;;;;;;;;;13.31;65.71;99095.69;5056939;28;19929;-76
2023/05/14 01:44:32;;;;;;;;;;;;;;;13.21;66.29;99101.00;5061422;28;19920;-76
2023/05/14 01:46:57;;;;;;;;;;;;;;;13.26;65.94;99095.66;5060058;28;20281;-76
2023/05/14 01:49:23;;;;;;;;;;;;;;;13.27;66.05;99089.25;5054557;28;19921;-76
2023/05/14 01:51:48;;;;;;;;;;;;;;;13.20;66.41;99085.97;5051527;28;19969;-76
2023/05/14 01:54:13;;;;;;;;;;;;;;;13.18;66.59;99092.66;5055506;28;19921;-76
2023/05/14 01:56:38;;;;;;;;;;;;;;;13.20;66.49;99088.66;5058201;28;19929;-76
2023/05/14 01:59:04;;;;;;;;;;;;;;;13.19;66.42;99087.03;5054428;28;19931;-76
2023/05/14 02:01:29;;;;;;;;;;;;;;;13.19;66.34;99080.88;5050754;28;20549;-76
2023/05/14 02:03:54;;;;;;;;;;;;;;;13.12;66.85;99078.44;5051041;28;20377;-76
2023/05/14 02:06:19;;;;;;;;;;;;;;;13.13;66.64;99085.38;5053194;28;20472;-76
2023/05/14 02:08:45;;;;;;;;;;;;;;;13.09;66.77;99083.47;5053053;28;20030;-77
2023/05/14 02:11:10;;;;;;;;;;;;;;;13.07;66.86;99086.44;5048805;28;19924;-76
2023/05/14 02:13:35;;;;;;;;;;;;;;;13.06;67.02;99087.47;5043459;28;19932;-76
2023/05/14 02:16:00;;;;;;;;;;;;;;;13.05;66.94;99085.06;5057680;28;21516;-76
2023/05/14 02:18:26;;;;;;;;;;;;;;;13.01;67.06;99084.75;5055835;28;19931;-76
2023/05/14 02:20:51;;;;;;;;;;;;;;;12.86;67.37;99078.47;5050520;28;19933;-76
2023/05/14 02:23:16;;;;;;;;;;;;;;;13.01;67.39;99076.72;5056550;28;19931;-76
2023/05/14 02:25:42;;;;;;;;;;;;;;;12.99;67.09;99076.16;5046472;28;19991;-76
2023/05/14 02:28:07;;;;;;;;;;;;;;;12.95;67.16;99077.75;5055377;28;19968;-76
2023/05/14 02:30:33;;;;;;;;;;;;;;;12.53;67.79;99076.88;5056422;28;19921;-76
2023/05/14 02:32:58;;;;;;;;;;;;;;;12.82;67.26;99074.72;5064538;28;19921;-76
2023/05/14 02:35:23;;;;;;;;;;;;;;;13.00;66.89;99072.41;5057610;28;19929;-76
2023/05/14 02:37:48;;;;;;;;;;;;;;;13.09;66.26;99078.13;5060583;28;20360;-76
2023/05/14 02:40:14;;;;;;;;;;;;;;;12.93;66.94;99073.72;5060560;28;19939;-76
2023/05/14 02:42:39;;;;;;;;;;;;;;;12.90;66.82;99074.22;5045521;28;20442;-76
2023/05/14 02:45:05;;;;;;;;;;;;;;;12.85;67.24;99071.50;5058616;28;19925;-76
2023/05/14 02:47:30;;;;;;;;;;;;;;;12.82;67.13;99066.69;5061837;28;19987;-76
2023/05/14 02:49:55;;;;;;;;;;;;;;;12.71;67.45;99058.53;5058105;28;19924;-76
2023/05/14 02:52:21;;;;;;;;;;;;;;;12.74;67.42;99058.03;5049408;28;19925;-76
2023/05/14 02:54:46;;;;;;;;;;;;;;;12.80;67.35;99056.19;5057606;28;19928;-76
2023/05/14 02:57:12;;;;;;;;;;;;;;;12.71;67.05;99063.13;5054687;28;19924;-76
2023/05/14 02:59:37;;;;;;;;;;;;;;;12.77;67.26;99059.41;5054008;28;19927;-76
2023/05/14 03:02:02;;;;;;;;;;;;;;;12.69;66.95;99067.91;5049906;28;20324;-76
2023/05/14 03:04:28;;;;;;;;;;;;;;;12.59;67.31;99067.81;5054292;28;19928;-77
2023/05/14 03:06:53;;;;;;;;;;;;;;;12.60;67.48;99064.88;5057814;28;19958;-76
2023/05/14 03:09:19;;;;;;;;;;;;;;;12.51;67.69;99061.09;5051577;28;19929;-76
2023/05/14 03:11:44;;;;;;;;;;;;;;;12.61;67.36;99055.00;5050711;28;19924;-76
2023/05/14 03:14:09;;;;;;;;;;;;;;;12.62;67.10;99045.91;5054011;28;19928;-76
2023/05/14 03:16:34;;;;;;;;;;;;;;;12.54;67.43;99041.81;5048241;28;19925;-76
2023/05/14 03:19:00;;;;;;;;;;;;;;;12.58;67.15;99045.59;5056872;28;20015;-76
2023/05/14 03:21:25;;;;;;;;;;;;;;;12.60;67.26;99056.84;5058286;28;20020;-76
2023/05/14 03:23:51;;;;;;;;;;;;;;;12.52;67.31;99051.97;5055484;28;19924;-76
2023/05/14 03:26:16;;;;;;;;;;;;;;;12.58;67.08;99055.53;5058368;28;20315;-76
2023/05/14 03:28:41;;;;;;;;;;;;;;;12.54;67.15;99047.19;5053914;28;19928;-76
2023/05/14 03:31:06;;;;;;;;;;;;;;;10.99;72.27;99049.72;5040115;28;20034;-76
2023/05/14 03:33:32;;;;;;;;;;;;;;;11.16;72.02;99053.16;5056626;28;20019;-76
2023/05/14 03:35:57;;;;;;;;;;;;;;;11.88;69.98;99064.47;5061118;28;19928;-76
2023/05/14 03:38:23;;;;;;;;;;;;;;;12.27;68.27;99062.47;5045445;28;19970;-76
2023/05/14 03:40:48;;;;;;;;;;;;;;;12.41;68.24;99066.34;5053787;28;19932;-76
2023/05/14 03:43:13;;;;;;;;;;;;;;;12.49;67.96;99063.19;5050450;28;20327;-76
2023/05/14 03:45:39;;;;;;;;;;;;;;;12.47;67.84;99059.19;5055756;28;19920;-76
2023/05/14 03:48:04;;;;;;;;;;;;;;;12.57;67.79;99056.56;5058304;28;20346;-76
2023/05/14 03:50:29;;;;;;;;;;;;;;;12.62;67.46;99059.28;5057385;28;19925;-76
2023/05/14 03:52:55;;;;;;;;;;;;;;;12.60;67.69;99056.06;5064991;28;20295;-76
2023/05/14 03:55:20;;;;;;;;;;;;;;;12.61;68.00;99063.03;5054783;28;19920;-75
2023/05/14 03:57:46;;;;;;;;;;;;;;;12.59;67.77;99060.63;5060251;28;19952;-76
2023/05/14 04:00:12;;;;;;;;;;;;;;;12.56;68.07;99049.59;5056514;28;19951;-76
2023/05/14 04:02:37;;;;;;;;;;;;;;;12.12;69.63;99061.53;5053750;28;20388;-76
2023/05/14 04:05:03;;;;;;;;;;;;;;;12.04;70.08;99060.91;5039170;28;19921;-76
2023/05/14 04:07:28;;;;;;;;;;;;;;;12.52;68.55;99056.53;5044110;28;19920;-76
2023/05/14 04:09:53;;;;;;;;;;;;;;;12.61;68.09;99055.00;5050620;28;19954;-76
2023/05/14 04:12:19;;;;;;;;;;;;;;;12.73;67.97;99052.97;5053176;28;19920;-76
2023/05/14 04:14:44;;;;;;;;;;;;;;;12.66;68.32;99053.16;5051366;28;19920;-76
2023/05/14 04:17:09;;;;;;;;;;;;;;;12.74;67.92;99055.38;5053487;28;20419;-76
2023/05/14 04:19:35;;;;;;;;;;;;;;;12.78;67.85;99052.97;5050040;28;19932;-76
2023/05/14 04:22:00;;;;;;;;;;;;;;;12.73;67.92;99050.28;5051747;28;20916;-76
2023/05/14 04:24:25;;;;;;;;;;;;;;;12.78;68.00;99045.75;5047058;28;19939;-76
2023/05/14 04:26:50;;;;;;;;;;;;;;;12.82;68.04;99040.66;5055564;28;19928;-76
2023/05/14 04:29:15;;;;;;;;;;;;;;;12.88;67.68;99045.03;5054714;28;19960;-76
2023/05/14 04:31:41;;;;;;;;;;;;;;;12.85;67.91;99042.03;5053017;28;19960;-76
2023/05/14 04:34:07;;;;;;;;;;;;;;;12.79;68.24;99046.56;5057281;28;19929;-76
2023/05/14 04:36:32;;;;;;;;;;;;;;;12.75;68.60;99040.09;5058348;28;19923;-76
2023/05/14 04:38:57;;;;;;;;;;;;;;;12.07;72.33;99048.09;5058762;28;19924;-76
2023/05/14 04:41:22;;;;;;;;;;;;;;;11.42;75.50;99048.97;5054355;28;20375;-76
2023/05/14 04:43:48;;;;;;;;;;;;;;;11.07;77.43;99048.50;5061937;28;20368;-76
2023/05/14 04:46:14;;;;;;;;;;;;;;;10.95;78.48;99053.13;5053188;28;19931;-76
2023/05/14 04:48:39;;;;;;;;;;;;;;;10.74;79.18;99049.38;5046337;28;19920;-76
2023/05/14 04:51:04;;;;;;;;;;;;;;;10.82;79.46;99053.47;5053307;28;19976;-76
2023/05/14 04:53:30;;;;;;;;;;;;;;;10.99;77.99;99059.59;5052972;28;19924;-76
2023/05/14 04:55:55;;;;;;;;;;;;;;;11.48;75.49;99071.19;5056782;28;20341;-76
2023/05/14 04:58:22;;;;;;;;;;;;;;;11.24;76.74;99071.44;5056425;28;19924;-76
2023/05/14 05:00:47;;;;;;;;;;;;;;;10.73;79.36;99066.41;5043943;28;19936;-76
2023/05/14 05:03:12;;;;;;;;;;;;;;;10.79;79.14;99062.75;5069886;28;19966;-76
2023/05/14 05:05:38;;;;;;;;;;;;;;;11.15;78.13;99064.09;5051878;28;19924;-76
2023/05/14 05:08:03;;;;;;;;;;;;;;;11.57;75.74;99061.69;5043172;28;19924;-76
2023/05/14 05:10:28;;;;;;;;;;;;;;;12.20;72.60;99066.41;5052296;28;19927;-76
2023/05/14 05:12:53;;;;;;;;;;;;;;;12.77;70.69;99070.13;5049547;28;19929;-77
2023/05/14 05:15:19;;;;;;;;;;;;;;;12.96;69.73;99067.81;5055554;28;19955;-77
2023/05/14 05:17:44;;;;;;;;;;;;;;;12.91;69.57;99068.59;5052796;28;20371;-77
2023/05/14 05:20:10;;;;;;;;;;;;;;;12.93;69.48;99073.72;5049361;28;20388;-77
2023/05/14 05:22:35;;;;;;;;;;;;;;;12.91;69.42;99051.75;5050262;28;19928;-77
2023/05/14 05:25:04;;;;;;;;;;;;;;;13.07;69.20;99062.31;5050245;28;19931;-77
2023/05/14 05:27:29;;;;;;;;;;;;;;;13.11;69.03;99060.72;5055379;28;19990;-77
2023/05/14 05:29:54;;;;;;;;;;;;;;;13.10;69.03;99058.31;5054197;28;20790;-77
2023/05/14 05:32:20;;;;;;;;;;;;;;;13.13;68.97;99061.28;5056579;28;19927;-77
2023/05/14 05:34:45;;;;;;;;;;;;;;;12.99;69.88;99059.28;5047610;28;19931;-77
2023/05/14 05:37:12;;;;;;;;;;;;;;;12.96;70.44;99057.09;5048993;28;20004;-77
2023/05/14 05:39:38;;;;;;;;;;;;;;;13.15;68.90;99061.03;5048182;28;20027;-77
2023/05/14 05:42:04;;;;;;;;;;;;;;;13.20;68.88;99053.81;5055487;28;19999;-77
2023/05/14 05:44:29;;;;;;;;;;;;;;;12.62;71.66;99064.66;5052744;28;19920;-77
2023/05/14 05:46:57;;;;;;;;;;;;;;;12.99;70.02;99060.09;5059627;28;19921;-77
2023/05/14 05:49:22;;;;;;;;;;;;;;;12.01;76.06;99065.97;5058841;28;20006;-77
2023/05/14 05:51:50;;;;;;;;;;;;;;;11.84;76.32;99067.91;5058616;28;19967;-77
2023/05/14 05:54:16;;;;;;;;;;;;;;;12.03;76.01;99066.53;5057111;28;20011;-77
2023/05/14 05:56:41;;;;;;;;;;;;;;;12.29;73.99;99056.88;5048007;28;20003;-77
2023/05/14 05:59:06;;;;;;;;;;;;;;;12.19;75.43;99057.56;5064298;28;19944;-77
2023/05/14 06:01:32;;;;;;;;;;;;;;;11.50;78.20;99064.56;5058505;28;20299;-77
2023/05/14 06:03:57;;;;;;;;;;;;;;;11.20;78.47;99058.81;5036573;28;19928;-77
2023/05/14 06:06:22;;;;;;;;;;;;;;;11.52;78.52;99066.97;5046617;28;20339;-77
2023/05/14 06:08:48;;;;;;;;;;;;;;;11.63;78.48;99058.84;5046303;28;20322;-77
2023/05/14 06:11:14;;;;;;;;;;;;;;;11.72;77.34;99064.56;5049722;28;19968;-77
2023/05/14 06:13:39;;;;;;;;;;;;;;;12.45;73.88;99063.97;5049260;28;19924;-77
2023/05/14 06:16:04;;;;;;;;;;;;;;;13.06;71.25;99057.22;5041113;28;19920;-77
2023/05/14 06:18:30;;;;;;;;;;;;;;;13.28;70.37;99061.34;5052943;28;19920;-77
2023/05/14 06:20:56;;;;;;;;;;;;;;;12.92;72.85;99059.50;5054275;28;20431;-77
2023/05/14 06:23:21;;;;;;;;;;;;;;;12.45;75.21;99069.34;5070766;28;20315;-77
2023/05/14 06:25:48;;;;;;;;;;;;;;;13.18;71.47;99065.84;5060635;28;19986;-77
2023/05/14 06:28:13;;;;;;;;;;;;;;;12.31;74.55;99062.78;5057753;28;19925;-77
2023/05/14 06:30:39;;;;;;;;;;;;;;;12.89;72.86;99057.34;5053651;28;19927;-77
2023/05/14 06:33:04;;;;;;;;;;;;;;;13.33;70.85;99061.38;5059402;28;19930;-77
2023/05/14 06:35:29;;;;;;;;;;;;;;;13.64;69.52;99056.16;5060120;28;20046;-77
2023/05/14 06:37:54;;;;;;;;;;;;;;;13.94;67.99;99051.69;5058193;28;20029;-77
2023/05/14 06:40:20;;;;;;;;;;;;;;;13.98;67.64;99047.38;5073476;28;20403;-77
2023/05/14 06:42:45;;;;;;;;;;;;;;;13.57;70.27;99053.72;5058814;28;20011;-77
2023/05/14 06:45:10;;;;;;;;;;;;;;;13.37;72.32;99054.44;5060240;28;19921;-77
2023/05/14 06:47:35;;;;;;;;;;;;;;;12.82;73.50;99057.56;5057126;28;19962;-77
2023/05/14 06:50:01;;;;;;;;;;;;;;;13.43;70.90;99045.34;5068266;28;20040;-77
2023/05/14 06:52:26;;;;;;;;;;;;;;;13.83;69.48;99050.03;5059331;28;20009;-77
2023/05/14 06:54:51;;;;;;;;;;;;;;;13.02;73.02;99056.88;5067282;28;19955;-77
2023/05/14 06:57:16;;;;;;;;;;;;;;;13.87;69.31;99055.69;5061998;28;20025;-77
2023/05/14 06:59:42;;;;;;;;;;;;;;;13.80;69.65;99055.94;5065881;28;20006;-77
2023/05/14 07:02:07;;;;;;;;;;;;;;;12.61;74.62;99060.34;5051767;28;19927;-77
2023/05/14 07:04:32;;;;;;;;;;;;;;;12.75;75.13;99056.19;5057649;28;19920;-77
2023/05/14 07:06:57;;;;;;;;;;;;;;;12.44;74.91;99052.47;5059000;28;19928;-77
2023/05/14 07:09:22;;;;;;;;;;;;;;;12.41;75.94;99046.78;5057685;28;19920;-77
2023/05/14 07:11:48;;;;;;;;;;;;;;;13.31;72.04;99036.72;5064143;28;19916;-77
2023/05/14 07:14:13;;;;;;;;;;;;;;;13.08;73.20;99036.31;5062968;28;19952;-77
2023/05/14 07:16:39;;;;;;;;;;;;;;;13.17;72.89;99040.91;5059975;28;19921;-77
2023/05/14 07:19:04;;;;;;;;;;;;;;;13.24;72.40;99038.81;5051538;28;20392;-77
2023/05/14 07:21:30;;;;;;;;;;;;;;;13.48;72.77;99033.81;5058330;28;19974;-77
2023/05/14 07:23:55;;;;;;;;;;;;;;;13.79;70.61;99032.03;5052590;28;19920;-77
2023/05/14 07:26:23;;;;;;;;;;;;;;;14.00;70.09;99037.19;5055454;28;20603;-77
2023/05/14 07:28:48;;;;;;;;;;;;;;;13.58;72.42;99033.88;5070790;28;20003;-77
2023/05/14 07:31:13;;;;;;;;;;;;;;;14.18;69.46;99031.31;5068390;28;20507;-77
2023/05/14 07:33:38;;;;;;;;;;;;;;;14.47;68.57;99028.13;5062499;28;20342;-77
2023/05/14 07:36:04;;;;;;;;;;;;;;;14.60;68.10;99025.72;5060795;28;19928;-77
2023/05/14 07:38:29;;;;;;;;;;;;;;;14.80;67.25;99025.72;5064505;28;19978;-77
2023/05/14 07:40:55;;;;;;;;;;;;;;;14.87;67.43;99018.16;5063621;28;20316;-77
2023/05/14 07:43:20;;;;;;;;;;;;;;;14.32;71.58;99028.13;5061956;28;19920;-77
2023/05/14 07:45:45;;;;;;;;;;;;;;;14.45;70.78;99016.88;5060058;28;20444;-77
2023/05/14 07:48:11;;;;;;;;;;;;;;;14.58;70.26;99008.25;5062557;28;19927;-77
2023/05/14 07:50:36;;;;;;;;;;;;;;;14.52;70.99;99018.22;5059554;28;19932;-77
2023/05/14 07:53:02;;;;;;;;;;;;;;;14.41;72.14;99015.78;5059462;28;19927;-77
2023/05/14 07:55:27;;;;;;;;;;;;;;;14.70;71.26;99017.66;5056513;28;19964;-77
2023/05/14 07:57:52;;;;;;;;;;;;;;;14.34;70.61;99016.06;5060747;28;19929;-77
2023/05/14 08:00:18;;;;;;;;;;;;;;;14.45;71.54;99004.25;5058063;28;20011;-77
2023/05/14 08:02:43;;;;;;;;;;;;;;;14.69;71.21;99001.81;5055915;28;20000;-77
2023/05/14 08:05:08;;;;;;;;;;;;;;;14.28;71.35;99011.75;5052509;28;19924;-77
2023/05/14 08:07:34;;;;;;;;;;;;;;;14.34;72.07;99015.25;5055138;28;20012;-77
2023/05/14 08:09:59;;;;;;;;;;;;;;;14.86;70.37;99007.69;5057319;28;19920;-77
2023/05/14 08:12:25;;;;;;;;;;;;;;;14.62;71.19;99009.31;5054646;28;19916;-77
2023/05/14 08:14:51;;;;;;;;;;;;;;;14.77;71.38;99003.94;5033824;28;19927;-77
2023/05/14 08:17:16;;;;;;;;;;;;;;;14.56;71.30;99003.16;5053460;28;19924;-77
2023/05/14 08:19:42;;;;;;;;;;;;;;;14.99;69.92;98999.84;5055027;28;20257;-77
2023/05/14 08:22:07;;;;;;;;;;;;;;;15.51;68.19;99001.28;5057023;28;19924;-77
2023/05/14 08:24:32;;;;;;;;;;;;;;;15.56;69.65;99012.03;5048767;28;19931;-77
2023/05/14 08:26:57;;;;;;;;;;;;;;;15.49;68.69;99006.16;5061783;28;20734;-78
2023/05/14 08:29:23;;;;;;;;;;;;;;;15.60;67.09;99005.84;5059473;28;20500;-77
2023/05/14 08:31:48;;;;;;;;;;;;;;;15.48;69.63;99004.56;5056621;28;19927;-77
2023/05/14 08:34:14;;;;;;;;;;;;;;;15.24;69.08;99003.56;5052097;28;19932;-77
2023/05/14 08:36:39;;;;;;;;;;;;;;;15.97;66.53;99005.34;5054335;28;19935;-77
2023/05/14 08:39:06;;;;;;;;;;;;;;;16.21;66.23;99000.88;5058054;28;19928;-77
2023/05/14 08:41:31;;;;;;;;;;;;;;;16.44;65.10;98993.97;5058521;28;19928;-78
2023/05/14 08:44:11;;;;;;;;;;;;;;;16.59;64.92;98990.34;5055107;28;20363;-77
2023/05/14 08:46:39;;;;;;;;;;;;;;;16.63;64.88;98984.09;5061468;28;20269;-77
2023/05/14 08:49:18;;;;;;;;;;;;;;;16.63;64.18;98980.59;5064024;28;19920;-77
2023/05/14 08:51:47;;;;;;;;;;;;;;;16.61;64.66;98988.16;5060990;28;19970;-77
2023/05/14 08:54:15;;;;;;;;;;;;;;;16.25;65.87;98976.88;5053771;28;19971;-77
2023/05/14 08:56:42;;;;;;;;;;;;;;;16.03;65.83;98977.28;5055580;28;19928;-77
2023/05/14 08:59:07;;;;;;;;;;;;;;;15.84;66.06;98975.56;5057788;28;20011;-77
2023/05/14 09:01:33;;;;;;;;;;;;;;;16.18;65.97;98973.72;5060928;28;20004;-77
2023/05/14 09:04:00;;;;;;;;;;;;;;;16.24;65.90;98968.00;5061154;28;19931;-77
2023/05/14 09:06:26;;;;;;;;;;;;;;;16.21;65.81;98971.25;5047558;28;20381;-77
2023/05/14 09:08:51;;;;;;;;;;;;;;;16.25;65.73;98969.59;5054590;28;19935;-77
2023/05/14 09:11:17;;;;;;;;;;;;;;;15.72;66.19;98962.44;5054991;28;19928;-77
2023/05/14 09:13:42;;;;;;;;;;;;;;;15.39;66.41;98961.25;5062342;28;19962;-77
2023/05/14 09:16:07;;;;;;;;;;;;;;;16.32;65.62;98958.50;5053109;28;19928;-77
2023/05/14 09:18:34;;;;;;;;;;;;;;;16.58;64.35;98962.59;5051533;28;19956;-77
2023/05/14 09:21:00;;;;;;;;;;;;;;;16.76;63.93;98956.47;5051268;28;19928;-77
2023/05/14 09:23:30;;;;;;;;;;;;;;;16.29;63.09;98951.00;5056556;28;19924;-77
2023/05/14 09:25:55;;;;;;;;;;;;;;;16.12;63.96;98954.06;5062855;28;19921;-77
2023/05/14 09:28:21;;;;;;;;;;;;;;;16.78;63.79;98942.72;5057368;28;19924;-77
2023/05/14 09:30:50;;;;;;;;;;;;;;;17.15;62.92;98943.63;5056906;28;20003;-77
2023/05/14 09:33:24;;;;;;;;;;;;;;;17.21;63.27;98933.59;5046300;28;19948;-77
2023/05/14 09:38:40;;;;;;;;;;;;;;;16.94;63.95;98941.47;5057181;28;19927;-77
2023/05/14 09:41:05;;;;;;;;;;;;;;;17.04;62.77;98933.25;5064237;28;19924;-77
2023/05/14 09:43:30;;;;;;;;;;;;;;;17.17;60.06;98929.84;5057648;28;19956;-77
2023/05/14 09:45:56;;;;;;;;;;;;;;;17.23;61.77;98934.88;5044735;28;19924;-77
2023/05/14 09:48:21;;;;;;;;;;;;;;;17.32;60.17;98924.25;5050059;28;19921;-77
2023/05/14 09:50:47;;;;;;;;;;;;;;;17.59;60.19;98921.75;5047659;28;19994;-77
2023/05/14 09:53:12;;;;;;;;;;;;;;;18.23;60.39;98917.53;5065574;28;19921;-77
2023/05/14 09:55:38;;;;;;;;;;;;;;;18.37;58.57;98918.38;5052952;28;19920;-77
2023/05/14 09:58:03;;;;;;;;;;;;;;;18.11;55.00;98920.69;5063609;28;19931;-77
2023/05/14 10:00:30;;;;;;;;;;;;;;;18.12;55.57;98919.59;5069509;28;19967;-77
2023/05/14 10:02:56;;;;;;;;;;;;;;;17.91;54.39;98902.91;5066977;28;20086;-77
2023/05/14 10:05:22;;;;;;;;;;;;;;;18.91;58.29;98902.22;5068291;28;19928;-77
2023/05/14 10:07:48;;;;;;;;;;;;;;;18.73;58.17;98907.72;5069304;28;20403;-77
2023/05/14 10:10:20;;;;;;;;;;;;;;;18.78;56.61;98904.91;5052450;28;20324;-77
2023/05/14 10:12:55;;;;;;;;;;;;;;;19.51;56.90;98910.16;5067893;28;19917;-77
2023/05/14 10:15:39;;;;;;;;;;;;;;;19.44;54.59;98905.16;5062750;28;21554;-77
2023/05/14 10:18:08;;;;;;;;;;;;;;;19.21;53.15;98907.00;5056995;28;19921;-77
2023/05/14 10:20:33;;;;;;;;;;;;;;;19.34;53.71;98898.09;5065663;28;20015;-77
2023/05/14 10:22:59;;;;;;;;;;;;;;;19.40;56.25;98899.56;5060199;28;20447;-77
2023/05/14 10:25:25;;;;;;;;;;;;;;;19.46;55.23;98902.97;5054852;28;19944;-77
2023/05/14 10:27:50;;;;;;;;;;;;;;;19.68;55.32;98894.09;5055978;28;19925;-77
2023/05/14 10:30:19;;;;;;;;;;;;;;;19.41;51.49;98889.56;5048860;28;20089;-76
2023/05/14 10:32:44;;;;;;;;;;;;;;;19.53;55.03;98905.28;5051480;28;20003;-76
2023/05/14 10:35:17;;;;;;;;;;;;;;;19.11;51.96;98893.66;5063447;28;20011;-77
2023/05/14 10:37:43;;;;;;;;;;;;;;;19.46;52.95;98886.75;5055530;28;19944;-77
2023/05/14 10:40:09;;;;;;;;;;;;;;;20.29;55.02;98880.66;5047624;28;19940;-77
2023/05/14 10:42:39;;;;;;;;;;;;;;;20.07;52.34;98877.97;5056324;28;19921;-76
2023/05/14 10:45:07;;;;;;;;;;;;;;;19.49;53.93;98877.19;5060475;28;19923;-77
2023/05/14 10:47:32;;;;;;;;;;;;;;;19.83;53.75;98864.72;5058566;28;19931;-77
2023/05/14 10:49:59;;;;;;;;;;;;;;;20.58;54.48;98864.69;5062052;28;19920;-76
2023/05/14 10:52:25;;;;;;;;;;;;;;;20.46;53.06;98867.22;5055900;28;20042;-76
2023/05/14 10:54:54;;;;;;;;;;;;;;;20.76;53.01;98858.22;5045962;28;19929;-76
2023/05/14 10:57:20;;;;;;;;;;;;;;;19.61;51.45;98869.34;5043287;28;19924;-76
2023/05/14 10:59:46;;;;;;;;;;;;;;;19.32;51.83;98862.38;5041439;28;20012;-76
2023/05/14 11:02:38;;;;;;;;;;;;;;;20.38;53.90;98862.53;5038808;28;19924;-76
2023/05/14 11:05:03;;;;;;;;;;;;;;;20.08;48.92;98852.44;5037009;28;19981;-76
2023/05/14 11:07:28;;;;;;;;;;;;;;;19.73;49.90;98856.84;5051618;28;19948;-76
2023/05/14 11:09:58;;;;;;;;;;;;;;;20.02;49.47;98840.16;5058477;28;20380;-76
2023/05/14 11:12:25;;;;;;;;;;;;;;;19.80;48.68;98851.00;5055089;28;20391;-76
2023/05/14 11:14:50;;;;;;;;;;;;;;;20.48;49.66;98840.56;5054774;28;19928;-76
2023/05/14 11:17:15;;;;;;;;;;;;;;;20.57;49.09;98832.47;5056900;28;19916;-76
2023/05/14 11:19:41;;;;;;;;;;;;;;;20.03;49.96;98839.81;5056632;28;19928;-76
2023/05/14 11:22:07;;;;;;;;;;;;;;;20.75;50.83;98839.56;5038854;28;20376;-77
2023/05/14 11:24:32;;;;;;;;;;;;;;;21.44;49.73;98837.78;5048877;28;19939;-77
2023/05/14 11:26:57;;;;;;;;;;;;;;;21.09;49.43;98838.84;5060895;28;20291;-77
2023/05/14 11:29:23;;;;;;;;;;;;;;;19.89;51.70;98838.31;5057675;28;20377;-76
2023/05/14 11:31:49;;;;;;;;;;;;;;;20.12;54.44;98831.75;5057145;28;19924;-76
2023/05/14 11:34:14;;;;;;;;;;;;;;;20.12;53.99;98831.75;5068779;28;19920;-77
2023/05/14 11:36:41;;;;;;;;;;;;;;;20.84;50.93;98827.59;5060382;28;19921;-76
2023/05/14 11:39:06;;;;;;;;;;;;;;;20.84;51.13;98824.88;5056507;28;21724;-77
2023/05/14 11:41:32;;;;;;;;;;;;;;;20.47;52.60;98827.31;5030143;28;19935;-76
2023/05/14 11:43:57;;;;;;;;;;;;;;;20.31;51.43;98823.44;5039612;28;19935;-76
2023/05/14 11:46:23;;;;;;;;;;;;;;;20.56;52.85;98825.44;5047440;28;19990;-77
2023/05/14 11:48:48;;;;;;;;;;;;;;;20.19;51.98;98826.69;5050039;28;20038;-77
2023/05/14 11:51:13;;;;;;;;;;;;;;;20.63;52.05;98825.78;5059789;28;20017;-76
2023/05/14 11:53:39;;;;;;;;;;;;;;;20.36;53.20;98815.13;5052749;28;19925;-76
2023/05/14 11:56:04;;;;;;;;;;;;;;;21.14;50.75;98809.66;5060523;28;20019;-76
2023/05/14 11:58:32;;;;;;;;;;;;;;;19.83;51.83;98812.47;5050947;28;19921;-76
2023/05/14 12:00:58;;;;;;;;;;;;;;;19.72;54.70;98803.81;5053549;28;19933;-76
2023/05/14 12:03:28;;;;;;;;;;;;;;;19.87;54.61;98805.31;5046273;28;19925;-76
2023/05/14 12:06:00;;;;;;;;;;;;;;;21.34;51.74;98800.84;5055304;28;19928;-76
2023/05/14 12:08:26;;;;;;;;;;;;;;;21.67;49.97;98806.59;5054244;28;20016;-76
2023/05/14 12:10:52;;;;;;;;;;;;;;;20.99;52.89;98801.91;5054799;28;19932;-76
2023/05/14 12:13:17;;;;;;;;;;;;;;;20.29;53.48;98804.75;5061193;28;19924;-76
2023/05/14 12:15:46;;;;;;;;;;;;;;;20.19;52.70;98794.97;5056532;28;19923;-76
2023/05/14 12:18:11;;;;;;;;;;;;;;;19.63;54.25;98802.13;5060037;28;20019;-76
2023/05/14 12:20:37;;;;;;;;;;;;;;;19.49;54.25;98795.97;5062395;28;20036;-76
2023/05/14 12:23:02;;;;;;;;;;;;;;;20.44;55.03;98790.00;5060270;28;19948;-76
2023/05/14 12:25:28;;;;;;;;;;;;;;;20.61;54.15;98792.75;5056107;28;19924;-76
2023/05/14 12:27:53;;;;;;;;;;;;;;;21.06;54.22;98783.28;5057862;28;19935;-76
2023/05/14 12:30:19;;;;;;;;;;;;;;;21.67;51.72;98786.81;5057718;28;19928;-76
2023/05/14 12:32:44;;;;;;;;;;;;;;;21.20;51.44;98796.72;5055857;28;20356;-76
2023/05/14 12:35:10;;;;;;;;;;;;;;;21.96;51.66;98792.34;5046042;28;20394;-76
2023/05/14 12:37:36;;;;;;;;;;;;;;;21.23;51.06;98785.22;5055732;28;19923;-76
2023/05/14 12:40:03;;;;;;;;;;;;;;;21.29;51.38;98787.47;5050536;28;19928;-76
2023/05/14 12:42:28;;;;;;;;;;;;;;;21.48;51.47;98787.13;5043516;28;19926;-76
2023/05/14 12:44:53;;;;;;;;;;;;;;;20.51;51.27;98780.28;5056770;28;20354;-76